Time;durP1;ratioP1;P1;durP2;ratioP2;P2;SDS_P1;SDS_P2;PMS_P1;PMS_P2;Temp;Humidity;BMP_temperature;BMP_pressure;BME280_temperature;BME280_humidity;BME280_pressure;Samples;Min_cycle;Max_cycle;Signal;HPM_P1;HPM_P2
2022/09/23 00:01:19;;;;;;;1.30;1.30;;;;;;;;;;4941846;28;20505;-54
2022/09/23 00:03:45;;;;;;;1.10;1.10;;;;;;;;;;4927490;28;20304;-54
2022/09/23 00:06:15;;;;;;;1.20;1.20;;;;;;;;;;4933749;28;20313;-54
2022/09/23 00:08:41;;;;;;;1.40;1.40;;;;;;;;;;4933574;28;20599;-54
2022/09/23 00:11:11;;;;;;;1.50;1.50;;;;;;;;;;4934505;28;20225;-54
2022/09/23 00:13:37;;;;;;;1.27;1.27;;;;;;;;;;4939757;28;20266;-54
2022/09/23 00:16:04;;;;;;;1.20;1.20;;;;;;;;;;4930695;28;20237;-54
2022/09/23 00:18:29;;;;;;;1.20;1.20;;;;;;;;;;4925803;28;20816;-54
2022/09/23 00:20:56;;;;;;;1.20;1.20;;;;;;;;;;4922032;28;20224;-54
2022/09/23 00:23:22;;;;;;;1.00;1.00;;;;;;;;;;4937842;28;20232;-54
2022/09/23 00:26:06;;;;;;;1.10;1.10;;;;;;;;;;4926692;28;20232;-54
2022/09/23 00:28:32;;;;;;;1.30;1.30;;;;;;;;;;4932760;28;20732;-54
2022/09/23 00:31:05;;;;;;;1.00;1.00;;;;;;;;;;4937589;28;20851;-54
2022/09/23 00:33:31;;;;;;;1.00;1.00;;;;;;;;;;4939762;28;20283;-54
2022/09/23 00:36:00;;;;;;;1.30;1.30;;;;;;;;;;4947201;28;20230;-54
2022/09/23 00:38:26;;;;;;;1.20;1.20;;;;;;;;;;4921369;28;20231;-54
2022/09/23 00:40:52;;;;;;;1.23;1.23;;;;;;;;;;4939258;28;20236;-54
2022/09/23 00:43:18;;;;;;;1.20;1.20;;;;;;;;;;4928010;28;20786;-54
2022/09/23 00:45:48;;;;;;;1.10;1.10;;;;;;;;;;4917434;28;20855;-54
2022/09/23 00:48:15;;;;;;;0.80;0.80;;;;;;;;;;4934670;28;20230;-54
2022/09/23 00:50:42;;;;;;;0.70;0.70;;;;;;;;;;4905105;28;20226;-54
2022/09/23 00:53:09;;;;;;;0.70;0.70;;;;;;;;;;4925077;28;20237;-54
2022/09/23 00:55:56;;;;;;;0.73;0.73;;;;;;;;;;4923467;28;20812;-54
2022/09/23 00:58:25;;;;;;;0.60;0.60;;;;;;;;;;4924291;28;20625;-54
2022/09/23 01:00:52;;;;;;;0.80;0.80;;;;;;;;;;4912840;28;20302;-54
2022/09/23 01:03:18;;;;;;;0.70;0.70;;;;;;;;;;4936421;28;20842;-54
2022/09/23 01:05:44;;;;;;;0.80;0.80;;;;;;;;;;4939803;28;20582;-54
2022/09/23 01:08:10;;;;;;;0.70;0.70;;;;;;;;;;4929387;28;20919;-55
2022/09/23 01:10:42;;;;;;;1.20;1.20;;;;;;;;;;4946289;28;20231;-54
2022/09/23 01:13:31;;;;;;;1.20;1.20;;;;;;;;;;4928247;28;20858;-53
2022/09/23 01:15:57;;;;;;;1.10;1.10;;;;;;;;;;4927603;28;20237;-54
2022/09/23 01:18:49;;;;;;;1.47;1.47;;;;;;;;;;4931312;28;20752;-54
2022/09/23 01:21:34;;;;;;;1.40;1.40;;;;;;;;;;4935918;28;20355;-54
2022/09/23 01:24:20;;;;;;;1.30;1.30;;;;;;;;;;4935211;28;20967;-54
2022/09/23 01:27:22;;;;;;;1.20;1.20;;;;;;;;;;4946632;28;20695;-54
2022/09/23 01:30:07;;;;;;;1.47;1.47;;;;;;;;;;4868126;29;20252;-53
2022/09/23 01:32:36;;;;;;;1.30;1.30;;;;;;;;;;4922562;28;20298;-54
2022/09/23 01:35:04;;;;;;;1.40;1.40;;;;;;;;;;4941599;28;20230;-54
2022/09/23 01:37:33;;;;;;;1.50;1.50;;;;;;;;;;4934448;28;20233;-55
2022/09/23 01:40:01;;;;;;;1.37;1.37;;;;;;;;;;4928777;28;20246;-54
2022/09/23 01:42:35;;;;;;;1.00;1.00;;;;;;;;;;4940656;28;20229;-54
2022/09/23 01:45:04;;;;;;;1.10;1.10;;;;;;;;;;4932392;28;20324;-54
2022/09/23 01:47:32;;;;;;;1.13;1.13;;;;;;;;;;4939598;28;20226;-54
2022/09/23 01:51:09;;;;;;;1.10;1.10;;;;;;;;;;4946052;28;20738;-54
2022/09/23 01:53:05;;;;;;;1.20;1.20;;;;;;;;;;4930237;28;20234;-54
2022/09/23 01:55:33;;;;;;;1.20;1.20;;;;;;;;;;4941627;28;20231;-54
2022/09/23 01:58:22;;;;;;;1.23;1.23;;;;;;;;;;4933565;28;20226;-54
2022/09/23 02:00:59;;;;;;;1.50;1.50;;;;;;;;;;4933346;28;20242;-54
2022/09/23 02:03:26;;;;;;;1.50;1.50;;;;;;;;;;4920442;28;20245;-54
2022/09/23 02:05:55;;;;;;;1.40;1.40;;;;;;;;;;4933735;28;20228;-54
2022/09/23 02:08:23;;;;;;;1.50;1.50;;;;;;;;;;4935417;28;20226;-54
2022/09/23 02:10:51;;;;;;;1.40;1.40;;;;;;;;;;4916395;28;20313;-53
2022/09/23 02:13:19;;;;;;;1.40;1.40;;;;;;;;;;4930806;28;20227;-54
2022/09/23 02:15:48;;;;;;;1.40;1.40;;;;;;;;;;4902241;28;20277;-54
2022/09/23 02:18:15;;;;;;;1.53;1.53;;;;;;;;;;4906515;28;20250;-54
2022/09/23 02:20:41;;;;;;;1.30;1.30;;;;;;;;;;4928001;28;20239;-54
2022/09/23 02:23:18;;;;;;;1.30;1.30;;;;;;;;;;4915925;28;20257;-54
2022/09/23 02:25:49;;;;;;;0.90;0.90;;;;;;;;;;4914347;28;20376;-54
2022/09/23 02:28:18;;;;;;;1.30;1.30;;;;;;;;;;4925441;28;20233;-54
2022/09/23 02:30:49;;;;;;;1.30;1.30;;;;;;;;;;4918781;28;20792;-54
2022/09/23 02:33:20;;;;;;;1.00;1.00;;;;;;;;;;4924218;28;20266;-54
2022/09/23 02:35:49;;;;;;;0.73;0.73;;;;;;;;;;4928292;28;23071;-54
2022/09/23 02:38:34;;;;;;;1.33;1.33;;;;;;;;;;4923928;28;20960;-54
2022/09/23 02:41:10;;;;;;;1.30;1.30;;;;;;;;;;4933127;28;20237;-54
2022/09/23 02:43:39;;;;;;;1.50;1.50;;;;;;;;;;4907669;28;21829;-54
2022/09/23 02:46:05;;;;;;;1.60;1.60;;;;;;;;;;4936426;28;20872;-54
2022/09/23 02:48:32;;;;;;;1.00;1.00;;;;;;;;;;4934227;28;20226;-54
2022/09/23 02:51:01;;;;;;;0.83;0.83;;;;;;;;;;4941088;28;22023;-54
2022/09/23 02:53:27;;;;;;;0.90;0.90;;;;;;;;;;4927813;28;20277;-54
2022/09/23 02:55:52;;;;;;;1.10;1.10;;;;;;;;;;4923802;28;20232;-54
2022/09/23 02:58:18;;;;;;;1.10;1.10;;;;;;;;;;4928232;28;20254;-54
2022/09/23 03:01:04;;;;;;;1.23;1.23;;;;;;;;;;4921523;28;20306;-54
2022/09/23 03:03:46;;;;;;;1.40;1.40;;;;;;;;;;4933918;28;20769;-54
2022/09/23 03:06:25;;;;;;;1.40;1.40;;;;;;;;;;4924331;28;22188;-54
2022/09/23 03:08:53;;;;;;;1.10;1.10;;;;;;;;;;4928537;28;20223;-54
2022/09/23 03:11:20;;;;;;;1.30;1.30;;;;;;;;;;4932327;28;21679;-54
2022/09/23 03:14:05;;;;;;;1.50;1.50;;;;;;;;;;4915931;28;20223;-54
2022/09/23 03:16:39;;;;;;;1.50;1.50;;;;;;;;;;4930169;28;20323;-54
2022/09/23 03:19:17;;;;;;;1.20;1.20;;;;;;;;;;4917441;28;20241;-54
2022/09/23 03:21:46;;;;;;;1.40;1.40;;;;;;;;;;4923198;28;20393;-54
2022/09/23 03:24:13;;;;;;;1.37;1.37;;;;;;;;;;4897484;28;20220;-54
2022/09/23 03:26:39;;;;;;;1.00;1.00;;;;;;;;;;4927555;28;20231;-54
2022/09/23 03:29:07;;;;;;;1.20;1.20;;;;;;;;;;4926705;28;20225;-54
2022/09/23 03:31:33;;;;;;;1.40;1.40;;;;;;;;;;4929810;28;20348;-54
2022/09/23 03:33:59;;;;;;;1.17;1.17;;;;;;;;;;4923461;28;20237;-54
2022/09/23 03:39:13;;;;;;;1.47;1.47;;;;;;;;;;4906573;28;20242;-54
2022/09/23 03:41:44;;;;;;;1.50;1.50;;;;;;;;;;4915662;28;20235;-54
2022/09/23 03:44:10;;;;;;;1.50;1.50;;;;;;;;;;4946881;28;20218;-54
2022/09/23 03:46:36;;;;;;;1.60;1.60;;;;;;;;;;4933486;28;20261;-54
2022/09/23 03:49:23;;;;;;;1.30;1.30;;;;;;;;;;4912792;28;20915;-54
2022/09/23 03:51:49;;;;;;;1.50;1.50;;;;;;;;;;4935294;28;20217;-54
2022/09/23 03:54:15;;;;;;;1.90;1.80;;;;;;;;;;4942725;28;20605;-54
2022/09/23 03:56:40;;;;;;;1.70;1.70;;;;;;;;;;4931324;28;20445;-54
2022/09/23 03:59:06;;;;;;;1.50;1.50;;;;;;;;;;4927373;28;20222;-54
2022/09/23 04:01:32;;;;;;;0.90;0.90;;;;;;;;;;4930938;28;20272;-54
2022/09/23 04:03:59;;;;;;;0.80;0.80;;;;;;;;;;4940551;28;20254;-54
2022/09/23 04:06:25;;;;;;;0.70;0.70;;;;;;;;;;4936696;28;20896;-54
2022/09/23 04:08:50;;;;;;;1.30;1.30;;;;;;;;;;4932265;28;20210;-54
2022/09/23 04:11:16;;;;;;;1.40;1.40;;;;;;;;;;4929622;28;20229;-54
2022/09/23 04:13:42;;;;;;;1.40;1.40;;;;;;;;;;4930301;28;20302;-54
2022/09/23 04:16:08;;;;;;;1.70;1.70;;;;;;;;;;4926293;28;20215;-54
2022/09/23 04:18:34;;;;;;;1.63;1.63;;;;;;;;;;4921229;28;20357;-54
2022/09/23 04:21:00;;;;;;;1.60;1.60;;;;;;;;;;4929652;28;20774;-54
2022/09/23 04:23:26;;;;;;;1.20;1.20;;;;;;;;;;4927426;28;20233;-54
2022/09/23 04:25:52;;;;;;;1.40;1.40;;;;;;;;;;4938116;28;20227;-54
2022/09/23 04:28:18;;;;;;;0.80;0.80;;;;;;;;;;4938324;28;20230;-54
2022/09/23 04:30:45;;;;;;;0.80;0.80;;;;;;;;;;4935060;28;20266;-54
2022/09/23 04:33:11;;;;;;;1.37;1.37;;;;;;;;;;4939000;28;20294;-54
2022/09/23 04:35:41;;;;;;;1.40;1.40;;;;;;;;;;4933242;28;20835;-54
2022/09/23 04:38:08;;;;;;;0.80;0.80;;;;;;;;;;4934311;28;20246;-54
2022/09/23 04:40:34;;;;;;;0.70;0.70;;;;;;;;;;4935358;28;20218;-54
2022/09/23 04:43:00;;;;;;;0.80;0.80;;;;;;;;;;4940760;28;20226;-54
2022/09/23 04:45:26;;;;;;;0.70;0.70;;;;;;;;;;4917238;28;20238;-54
2022/09/23 04:47:52;;;;;;;0.70;0.70;;;;;;;;;;4921025;28;20873;-53
2022/09/23 04:50:18;;;;;;;0.80;0.80;;;;;;;;;;4930465;28;20695;-54
2022/09/23 04:52:44;;;;;;;0.87;0.87;;;;;;;;;;4928390;28;20617;-54
2022/09/23 04:55:10;;;;;;;0.70;0.70;;;;;;;;;;4947371;28;20241;-54
2022/09/23 04:57:36;;;;;;;2.07;1.97;;;;;;;;;;4926085;28;20239;-54
2022/09/23 05:00:02;;;;;;;1.60;1.60;;;;;;;;;;4943617;28;20226;-54
2022/09/23 05:02:28;;;;;;;1.60;1.60;;;;;;;;;;4945771;28;20232;-54
2022/09/23 05:04:54;;;;;;;2.10;2.00;;;;;;;;;;4954581;28;20261;-54
2022/09/23 05:07:20;;;;;;;1.90;1.80;;;;;;;;;;4939495;28;20223;-54
2022/09/23 05:09:46;;;;;;;1.90;1.80;;;;;;;;;;4897106;28;23015;-53
2022/09/23 05:12:12;;;;;;;1.90;1.80;;;;;;;;;;4915533;28;20226;-55
2022/09/23 05:14:38;;;;;;;1.60;1.60;;;;;;;;;;4928307;28;20443;-56
2022/09/23 05:17:05;;;;;;;1.70;1.70;;;;;;;;;;4929967;28;20717;-54
2022/09/23 05:19:31;;;;;;;0.90;0.90;;;;;;;;;;4933243;28;20302;-55
2022/09/23 05:21:57;;;;;;;0.90;0.90;;;;;;;;;;4946706;28;20568;-55
2022/09/23 05:24:23;;;;;;;1.00;1.00;;;;;;;;;;4943794;28;20723;-55
2022/09/23 05:26:50;;;;;;;0.70;0.70;;;;;;;;;;4940155;28;20226;-56
2022/09/23 05:29:16;;;;;;;0.80;0.80;;;;;;;;;;4933549;28;20253;-55
2022/09/23 05:31:42;;;;;;;0.70;0.70;;;;;;;;;;4927290;28;20232;-55
2022/09/23 05:34:08;;;;;;;0.97;0.97;;;;;;;;;;4952270;28;20498;-55
2022/09/23 05:36:34;;;;;;;0.90;0.90;;;;;;;;;;4949853;28;20316;-55
2022/09/23 05:39:00;;;;;;;0.90;0.90;;;;;;;;;;4952183;28;20226;-56
2022/09/23 05:41:26;;;;;;;0.70;0.70;;;;;;;;;;4939066;28;20253;-54
2022/09/23 05:43:53;;;;;;;1.00;1.00;;;;;;;;;;4943509;28;20860;-55
2022/09/23 05:46:19;;;;;;;1.10;1.10;;;;;;;;;;4946833;28;20651;-55
2022/09/23 05:48:46;;;;;;;0.90;0.90;;;;;;;;;;4944577;28;20869;-54
2022/09/23 05:51:16;;;;;;;0.83;0.83;;;;;;;;;;4947053;28;20235;-54
2022/09/23 05:53:44;;;;;;;0.90;0.90;;;;;;;;;;4939059;28;20257;-54
2022/09/23 05:56:10;;;;;;;0.80;0.80;;;;;;;;;;4952386;28;20234;-55
2022/09/23 05:58:36;;;;;;;0.70;0.70;;;;;;;;;;4947155;28;20257;-55
2022/09/23 06:01:08;;;;;;;0.70;0.70;;;;;;;;;;4955815;28;20223;-55
2022/09/23 06:03:34;;;;;;;0.90;0.90;;;;;;;;;;4949138;28;20360;-55
2022/09/23 06:06:00;;;;;;;0.90;0.90;;;;;;;;;;4949401;28;20218;-54
2022/09/23 06:08:26;;;;;;;0.90;0.90;;;;;;;;;;4945612;28;20356;-55
2022/09/23 06:10:52;;;;;;;0.90;0.90;;;;;;;;;;4937957;28;21862;-56
2022/09/23 06:13:18;;;;;;;0.80;0.80;;;;;;;;;;4935801;28;20235;-55
2022/09/23 06:15:44;;;;;;;0.87;0.87;;;;;;;;;;4937601;28;20231;-55
2022/09/23 06:18:10;;;;;;;1.00;1.00;;;;;;;;;;4935019;28;20226;-54
2022/09/23 06:20:35;;;;;;;0.80;0.80;;;;;;;;;;4935897;28;20274;-56
2022/09/23 06:23:02;;;;;;;0.90;0.90;;;;;;;;;;4951225;28;20233;-55
2022/09/23 06:25:28;;;;;;;0.80;0.80;;;;;;;;;;4949568;28;20257;-55
2022/09/23 06:27:54;;;;;;;0.97;0.97;;;;;;;;;;4935397;28;20322;-54
2022/09/23 06:30:25;;;;;;;0.90;0.90;;;;;;;;;;4925081;28;20451;-55
2022/09/23 06:32:51;;;;;;;0.80;0.80;;;;;;;;;;4932409;28;20234;-55
2022/09/23 06:35:18;;;;;;;0.70;0.70;;;;;;;;;;4950472;28;20385;-55
2022/09/23 06:37:44;;;;;;;0.80;0.80;;;;;;;;;;4942118;28;20258;-54
2022/09/23 06:40:10;;;;;;;0.90;0.90;;;;;;;;;;4930023;28;20226;-56
2022/09/23 06:42:35;;;;;;;0.90;0.90;;;;;;;;;;4935962;28;20277;-55
2022/09/23 06:45:01;;;;;;;0.90;0.90;;;;;;;;;;4927395;28;20323;-56
2022/09/23 06:47:30;;;;;;;0.70;0.70;;;;;;;;;;4945672;28;20237;-54
2022/09/23 06:49:56;;;;;;;0.93;0.93;;;;;;;;;;4953638;28;20675;-55
2022/09/23 06:52:22;;;;;;;0.70;0.70;;;;;;;;;;4935676;28;20231;-56
2022/09/23 06:54:48;;;;;;;0.77;0.77;;;;;;;;;;4925245;28;20231;-55
2022/09/23 06:57:14;;;;;;;0.97;0.97;;;;;;;;;;4924560;28;20253;-56
2022/09/23 06:59:40;;;;;;;0.80;0.80;;;;;;;;;;4942897;28;20297;-56
2022/09/23 07:02:07;;;;;;;0.90;0.90;;;;;;;;;;4946642;28;20249;-55
2022/09/23 07:04:33;;;;;;;0.83;0.83;;;;;;;;;;4950958;28;20755;-55
2022/09/23 07:06:59;;;;;;;0.90;0.90;;;;;;;;;;4942777;28;20318;-54
2022/09/23 07:09:25;;;;;;;0.70;0.70;;;;;;;;;;4945899;28;20357;-56
2022/09/23 07:11:51;;;;;;;0.80;0.80;;;;;;;;;;4941851;28;20309;-56
2022/09/23 07:14:17;;;;;;;0.80;0.80;;;;;;;;;;4944475;28;20227;-58
2022/09/23 07:16:43;;;;;;;0.70;0.70;;;;;;;;;;4941609;28;20286;-56
2022/09/23 07:19:09;;;;;;;0.87;0.87;;;;;;;;;;4944104;28;20214;-57
2022/09/23 07:21:36;;;;;;;0.90;0.90;;;;;;;;;;4940388;28;20246;-58
2022/09/23 07:24:02;;;;;;;0.70;0.70;;;;;;;;;;4934480;28;21257;-57
2022/09/23 07:26:29;;;;;;;0.80;0.80;;;;;;;;;;4945805;28;20329;-57
2022/09/23 07:28:55;;;;;;;0.70;0.70;;;;;;;;;;4953951;28;20254;-56
2022/09/23 07:31:21;;;;;;;0.70;0.70;;;;;;;;;;4940016;28;20297;-57
2022/09/23 07:33:48;;;;;;;0.73;0.73;;;;;;;;;;4934047;28;20235;-56
2022/09/23 07:36:16;;;;;;;0.83;0.83;;;;;;;;;;4934751;28;20672;-57
2022/09/23 07:38:42;;;;;;;0.70;0.70;;;;;;;;;;4946961;28;20219;-57
2022/09/23 07:41:09;;;;;;;0.70;0.70;;;;;;;;;;4938427;28;21167;-57
2022/09/23 07:43:35;;;;;;;0.90;0.90;;;;;;;;;;4931062;28;20713;-57
2022/09/23 07:46:01;;;;;;;0.90;0.90;;;;;;;;;;4954880;28;20268;-57
2022/09/23 07:48:30;;;;;;;0.90;0.90;;;;;;;;;;4938416;28;20230;-57
2022/09/23 07:50:58;;;;;;;0.73;0.73;;;;;;;;;;4941248;28;20238;-56
2022/09/23 07:53:24;;;;;;;0.80;0.80;;;;;;;;;;4938643;28;20227;-57
2022/09/23 07:55:53;;;;;;;0.90;0.90;;;;;;;;;;4945424;28;20718;-56
2022/09/23 07:58:19;;;;;;;0.80;0.80;;;;;;;;;;4928543;28;20237;-56
2022/09/23 08:00:45;;;;;;;0.90;0.90;;;;;;;;;;4921139;28;20253;-57
2022/09/23 08:03:11;;;;;;;0.70;0.70;;;;;;;;;;4921810;28;20761;-58
2022/09/23 08:05:37;;;;;;;0.70;0.70;;;;;;;;;;4922312;28;20222;-58
2022/09/23 08:08:05;;;;;;;0.80;0.80;;;;;;;;;;4925854;28;20342;-56
2022/09/23 08:10:31;;;;;;;0.90;0.90;;;;;;;;;;4932700;28;20808;-57
2022/09/23 08:12:58;;;;;;;0.90;0.90;;;;;;;;;;4928377;28;20227;-57
2022/09/23 08:15:25;;;;;;;0.70;0.70;;;;;;;;;;4936890;28;20239;-57
2022/09/23 08:17:51;;;;;;;1.00;1.00;;;;;;;;;;4937882;28;20236;-58
2022/09/23 08:20:42;;;;;;;0.93;0.93;;;;;;;;;;4941975;28;20961;-57
2022/09/23 08:23:03;;;;;;;0.70;0.70;;;;;;;;;;4925709;28;20751;-58
2022/09/23 08:25:30;;;;;;;0.80;0.80;;;;;;;;;;4932796;28;20700;-57
2022/09/23 08:27:56;;;;;;;0.70;0.70;;;;;;;;;;4934804;28;21232;-56
2022/09/23 08:30:22;;;;;;;0.80;0.80;;;;;;;;;;4945880;28;20247;-57
2022/09/23 08:32:49;;;;;;;0.80;0.80;;;;;;;;;;4938056;28;20226;-57
2022/09/23 08:35:15;;;;;;;0.93;0.93;;;;;;;;;;4942091;28;20238;-56
2022/09/23 08:37:41;;;;;;;0.90;0.90;;;;;;;;;;4944638;28;20281;-57
2022/09/23 08:40:07;;;;;;;0.80;0.80;;;;;;;;;;4935038;28;20700;-58
2022/09/23 08:42:34;;;;;;;0.80;0.80;;;;;;;;;;4938443;28;20226;-58
2022/09/23 08:45:00;;;;;;;0.93;0.93;;;;;;;;;;4921509;28;26716;-58
2022/09/23 08:47:31;;;;;;;0.97;0.97;;;;;;;;;;4930962;28;20377;-58
2022/09/23 08:49:58;;;;;;;0.90;0.90;;;;;;;;;;4920444;28;22235;-57
2022/09/23 08:52:44;;;;;;;0.87;0.87;;;;;;;;;;4939162;28;20264;-57
2022/09/23 08:55:11;;;;;;;0.90;0.90;;;;;;;;;;4932089;28;21356;-56
2022/09/23 08:57:43;;;;;;;1.00;1.00;;;;;;;;;;4922931;28;20235;-57
2022/09/23 09:00:29;;;;;;;0.90;0.90;;;;;;;;;;4928809;28;20362;-58
2022/09/23 09:02:55;;;;;;;1.10;1.10;;;;;;;;;;4921052;28;22121;-57
2022/09/23 09:05:25;;;;;;;0.97;0.97;;;;;;;;;;4940306;28;20215;-57
2022/09/23 09:07:51;;;;;;;0.90;0.90;;;;;;;;;;4912019;28;20232;-57
2022/09/23 09:10:24;;;;;;;0.80;0.80;;;;;;;;;;4940397;28;20224;-57
2022/09/23 09:13:00;;;;;;;0.80;0.80;;;;;;;;;;4926597;28;20242;-57
2022/09/23 09:15:26;;;;;;;1.00;1.00;;;;;;;;;;4920895;28;20291;-56
2022/09/23 09:18:06;;;;;;;0.80;0.80;;;;;;;;;;4936700;28;20235;-57
2022/09/23 09:20:45;;;;;;;0.90;0.90;;;;;;;;;;4933858;28;20227;-57
2022/09/23 09:23:21;;;;;;;0.80;0.80;;;;;;;;;;4931156;28;20234;-57
2022/09/23 09:25:50;;;;;;;1.00;1.00;;;;;;;;;;4952224;28;20349;-57
2022/09/23 09:28:21;;;;;;;0.97;0.97;;;;;;;;;;4930996;28;22760;-58
2022/09/23 09:30:50;;;;;;;0.83;0.83;;;;;;;;;;4934055;28;20256;-57
2022/09/23 09:33:16;;;;;;;1.10;1.10;;;;;;;;;;4943976;28;20237;-57
2022/09/23 09:35:49;;;;;;;1.00;1.00;;;;;;;;;;4940146;28;20281;-57
2022/09/23 09:38:15;;;;;;;1.13;1.13;;;;;;;;;;4932627;28;20242;-58
2022/09/23 09:40:44;;;;;;;0.93;0.93;;;;;;;;;;4938677;28;20227;-58
2022/09/23 09:43:10;;;;;;;1.00;1.00;;;;;;;;;;4939051;28;20234;-57
2022/09/23 09:46:02;;;;;;;1.00;1.00;;;;;;;;;;4943612;28;20740;-58
2022/09/23 09:48:38;;;;;;;0.70;0.70;;;;;;;;;;4937221;28;20313;-57
2022/09/23 09:51:18;;;;;;;1.00;1.00;;;;;;;;;;4946462;28;20318;-57
2022/09/23 09:53:43;;;;;;;1.13;1.13;;;;;;;;;;4929984;28;20313;-57
2022/09/23 09:56:10;;;;;;;0.70;0.70;;;;;;;;;;4927659;28;20262;-57
2022/09/23 09:58:43;;;;;;;0.60;0.60;;;;;;;;;;4941907;28;20267;-57
2022/09/23 10:01:17;;;;;;;0.73;0.73;;;;;;;;;;4936764;28;20259;-57
2022/09/23 10:03:43;;;;;;;0.60;0.60;;;;;;;;;;4942397;28;20258;-58
2022/09/23 10:06:13;;;;;;;0.70;0.70;;;;;;;;;;4934014;28;20234;-57
2022/09/23 10:08:39;;;;;;;1.30;1.30;;;;;;;;;;4946407;28;20226;-58
2022/09/23 10:11:07;;;;;;;1.30;1.30;;;;;;;;;;4928125;28;20660;-57
2022/09/23 10:13:32;;;;;;;1.20;1.20;;;;;;;;;;4940834;28;20231;-58
2022/09/23 10:16:02;;;;;;;1.10;1.10;;;;;;;;;;4935710;28;20252;-57
2022/09/23 10:18:34;;;;;;;1.10;1.10;;;;;;;;;;4930013;28;20239;-57
2022/09/23 10:21:13;;;;;;;1.20;1.20;;;;;;;;;;4922721;28;20258;-57
2022/09/23 10:23:46;;;;;;;1.30;1.30;;;;;;;;;;4944045;28;20559;-58
2022/09/23 10:26:12;;;;;;;1.13;1.13;;;;;;;;;;4940134;28;20238;-57
2022/09/23 10:28:52;;;;;;;0.95;0.95;;;;;;;;;;4954986;28;20222;-57
2022/09/23 10:31:27;;;;;;;1.42;1.42;;;;;;;;;;4936523;28;20985;-57
2022/09/23 10:33:56;;;;;;;1.40;1.40;;;;;;;;;;4928920;28;20306;-57
2022/09/23 10:36:22;;;;;;;1.50;1.50;;;;;;;;;;4936968;28;20232;-57
2022/09/23 10:38:49;;;;;;;1.50;1.50;;;;;;;;;;4926991;28;20246;-57
2022/09/23 10:46:51;;;;;;;1.30;1.30;;;;;;;;;;4922244;28;20710;-57
2022/09/23 10:49:41;;;;;;;1.40;1.40;;;;;;;;;;4929838;28;20228;-57
2022/09/23 10:52:14;;;;;;;1.40;1.40;;;;;;;;;;4918094;28;20273;-57
2022/09/23 10:54:47;;;;;;;1.00;1.00;;;;;;;;;;4922664;28;20235;-57
2022/09/23 10:57:41;;;;;;;0.90;0.90;;;;;;;;;;4937950;28;20230;-57
2022/09/23 11:00:11;;;;;;;0.80;0.80;;;;;;;;;;4912354;28;20586;-57
2022/09/23 11:02:57;;;;;;;0.80;0.80;;;;;;;;;;4941118;28;20226;-57
2022/09/23 11:05:31;;;;;;;0.80;0.80;;;;;;;;;;4928844;28;20246;-57
2022/09/23 11:08:01;;;;;;;0.90;0.90;;;;;;;;;;4927733;28;20799;-56
2022/09/23 11:10:30;;;;;;;0.80;0.80;;;;;;;;;;4933536;28;20435;-57
2022/09/23 11:13:02;;;;;;;0.80;0.80;;;;;;;;;;4937824;28;20326;-57
2022/09/23 11:15:55;;;;;;;0.80;0.80;;;;;;;;;;4908523;28;21206;-57
2022/09/23 11:18:39;;;;;;;0.80;0.80;;;;;;;;;;4893820;28;20238;-57
2022/09/23 11:21:24;;;;;;;0.80;0.80;;;;;;;;;;4931114;28;20264;-58
2022/09/23 11:23:56;;;;;;;0.77;0.77;;;;;;;;;;4920996;28;20293;-57
2022/09/23 11:26:26;;;;;;;0.80;0.80;;;;;;;;;;4927169;28;20264;-58
2022/09/23 11:29:21;;;;;;;0.80;0.80;;;;;;;;;;4912941;28;20231;-57
2022/09/23 11:31:51;;;;;;;0.80;0.80;;;;;;;;;;4885146;28;20244;-57
2022/09/23 11:34:21;;;;;;;0.90;0.90;;;;;;;;;;4951779;28;20717;-57
2022/09/23 11:36:52;;;;;;;0.90;0.90;;;;;;;;;;4925149;28;21232;-58
2022/09/23 11:39:18;;;;;;;0.90;0.90;;;;;;;;;;4933217;28;20234;-58
2022/09/23 11:41:44;;;;;;;0.93;0.93;;;;;;;;;;4941565;28;20227;-58
2022/09/23 11:44:30;;;;;;;0.90;0.90;;;;;;;;;;4929932;28;20888;-58
2022/09/23 11:47:01;;;;;;;1.00;1.00;;;;;;;;;;4927933;28;20649;-58
2022/09/23 11:49:32;;;;;;;1.00;1.00;;;;;;;;;;4933786;28;20218;-58
2022/09/23 11:51:58;;;;;;;1.00;1.00;;;;;;;;;;4934717;28;20227;-57
2022/09/23 11:54:44;;;;;;;1.10;1.10;;;;;;;;;;4930271;28;20241;-58
2022/09/23 11:57:13;;;;;;;1.10;1.10;;;;;;;;;;4935785;28;20294;-57
2022/09/23 11:59:41;;;;;;;1.10;1.10;;;;;;;;;;4931570;28;20630;-57
2022/09/23 12:02:13;;;;;;;1.10;1.10;;;;;;;;;;4931561;28;20244;-57
2022/09/23 12:04:40;;;;;;;1.20;1.20;;;;;;;;;;4927971;28;20233;-58
2022/09/23 12:07:14;;;;;;;1.20;1.20;;;;;;;;;;4877801;28;20295;-58
2022/09/23 12:09:48;;;;;;;1.10;1.10;;;;;;;;;;4916497;28;20942;-56
2022/09/23 12:12:34;;;;;;;1.30;1.30;;;;;;;;;;4942439;28;20223;-62
2022/09/23 12:15:04;;;;;;;1.25;1.25;;;;;;;;;;4914928;28;20259;-58
2022/09/23 12:17:49;;;;;;;1.10;1.10;;;;;;;;;;4924335;28;20237;-56
2022/09/23 12:20:20;;;;;;;1.20;1.20;;;;;;;;;;4940731;28;20325;-56
2022/09/23 12:22:54;;;;;;;1.20;1.20;;;;;;;;;;4942977;28;20254;-56
2022/09/23 12:25:33;;;;;;;1.20;1.20;;;;;;;;;;4941745;28;20234;-56
2022/09/23 12:28:06;;;;;;;1.20;1.20;;;;;;;;;;4934982;28;20237;-57
2022/09/23 12:30:32;;;;;;;1.13;1.13;;;;;;;;;;4940404;28;20744;-56
2022/09/23 12:33:07;;;;;;;1.20;1.20;;;;;;;;;;4913332;28;20781;-56
2022/09/23 12:35:40;;;;;;;1.25;1.25;;;;;;;;;;4941430;28;20258;-58
2022/09/23 12:38:33;;;;;;;1.30;1.30;;;;;;;;;;4917999;28;20240;-56
2022/09/23 12:40:59;;;;;;;1.20;1.20;;;;;;;;;;4919916;28;20243;-58
2022/09/23 12:43:28;;;;;;;1.30;1.30;;;;;;;;;;4938994;28;20253;-59
2022/09/23 12:45:55;;;;;;;1.20;1.20;;;;;;;;;;4927844;28;20231;-58
2022/09/23 12:48:21;;;;;;;1.20;1.20;;;;;;;;;;4923560;28;20313;-58
2022/09/23 12:51:02;;;;;;;1.30;1.30;;;;;;;;;;4924997;28;20230;-58
2022/09/23 12:53:34;;;;;;;1.20;1.20;;;;;;;;;;4929852;28;20230;-56
2022/09/23 12:56:01;;;;;;;1.10;1.10;;;;;;;;;;4923083;28;20257;-55
2022/09/23 12:58:38;;;;;;;1.10;1.10;;;;;;;;;;4924656;28;20234;-57
2022/09/23 13:01:07;;;;;;;1.33;1.33;;;;;;;;;;4903339;28;20230;-59
2022/09/23 13:09:03;;;;;;;1.10;1.10;;;;;;;;;;4909803;28;21019;-57
2022/09/23 13:11:29;;;;;;;1.10;1.10;;;;;;;;;;4934442;28;21185;-57
2022/09/23 13:13:56;;;;;;;1.10;1.10;;;;;;;;;;4925851;28;20259;-58
2022/09/23 13:16:25;;;;;;;1.10;1.10;;;;;;;;;;4932191;28;20336;-56
2022/09/23 13:18:54;;;;;;;1.02;1.02;;;;;;;;;;4926111;28;20219;-58
2022/09/23 13:21:39;;;;;;;1.10;1.10;;;;;;;;;;4944875;28;20225;-57
2022/09/23 13:24:32;;;;;;;1.10;1.10;;;;;;;;;;4930995;28;20330;-59
2022/09/23 13:27:03;;;;;;;1.00;1.00;;;;;;;;;;4928830;28;20236;-57
2022/09/23 13:29:32;;;;;;;1.10;1.10;;;;;;;;;;4925331;28;20794;-56
2022/09/23 13:31:58;;;;;;;1.40;1.40;;;;;;;;;;4939198;28;20731;-58
2022/09/23 13:34:24;;;;;;;1.42;1.42;;;;;;;;;;4930024;28;20292;-56
2022/09/23 13:36:50;;;;;;;1.20;1.20;;;;;;;;;;4919908;28;20696;-58
2022/09/23 13:39:26;;;;;;;1.30;1.30;;;;;;;;;;4940867;28;20745;-57
2022/09/23 13:41:52;;;;;;;1.20;1.20;;;;;;;;;;4927613;28;20244;-58
2022/09/23 13:44:18;;;;;;;1.20;1.20;;;;;;;;;;4923851;28;20715;-58
2022/09/23 13:46:46;;;;;;;1.25;1.25;;;;;;;;;;4933748;28;21020;-57
2022/09/23 13:49:20;;;;;;;1.20;1.20;;;;;;;;;;4931122;28;20218;-58
2022/09/23 13:51:46;;;;;;;1.00;1.00;;;;;;;;;;4931284;28;20221;-58
2022/09/23 13:54:25;;;;;;;1.10;1.10;;;;;;;;;;4933869;28;20257;-57
2022/09/23 13:56:51;;;;;;;1.20;1.20;;;;;;;;;;4944705;28;20237;-57
2022/09/23 13:59:20;;;;;;;1.20;1.20;;;;;;;;;;4916575;28;21506;-60
2022/09/23 14:01:46;;;;;;;1.30;1.30;;;;;;;;;;4925260;28;20269;-56
2022/09/23 14:04:24;;;;;;;1.20;1.20;;;;;;;;;;4939957;28;20887;-56
2022/09/23 14:06:50;;;;;;;1.30;1.30;;;;;;;;;;4942722;28;20774;-54
2022/09/23 14:09:17;;;;;;;1.30;1.30;;;;;;;;;;4934445;28;20672;-56
2022/09/23 14:11:43;;;;;;;1.20;1.20;;;;;;;;;;4917448;28;20811;-56
2022/09/23 14:14:11;;;;;;;1.30;1.30;;;;;;;;;;4912727;28;20801;-57
2022/09/23 14:16:37;;;;;;;1.10;1.10;;;;;;;;;;4929643;28;20287;-56
2022/09/23 14:19:03;;;;;;;1.27;1.27;;;;;;;;;;4918562;28;20262;-55
2022/09/23 14:21:33;;;;;;;1.30;1.30;;;;;;;;;;4924302;28;20219;-57
2022/09/23 14:24:18;;;;;;;1.20;1.20;;;;;;;;;;4927477;28;20320;-56
2022/09/23 14:27:07;;;;;;;1.20;1.20;;;;;;;;;;4942420;28;20222;-57
2022/09/23 14:29:34;;;;;;;1.40;1.40;;;;;;;;;;4927455;28;20336;-57
2022/09/23 14:32:02;;;;;;;1.20;1.20;;;;;;;;;;4897188;28;20226;-56
2022/09/23 14:34:45;;;;;;;1.13;1.13;;;;;;;;;;4925462;28;20211;-55
2022/09/23 14:40:02;;;;;;;1.42;1.42;;;;;;;;;;4934322;28;20290;-56
2022/09/23 14:42:29;;;;;;;1.20;1.20;;;;;;;;;;4935246;28;20222;-57
2022/09/23 14:44:55;;;;;;;1.10;1.10;;;;;;;;;;4901698;28;20640;-57
2022/09/23 14:47:21;;;;;;;1.20;1.20;;;;;;;;;;4920972;28;21513;-57
2022/09/23 14:50:35;;;;;;;1.30;1.30;;;;;;;;;;4914752;28;20378;-57
2022/09/23 14:52:33;;;;;;;1.40;1.40;;;;;;;;;;4935053;28;20577;-57
2022/09/23 14:54:59;;;;;;;1.23;1.23;;;;;;;;;;4941719;28;20230;-57
2022/09/23 14:57:29;;;;;;;1.20;1.20;;;;;;;;;;4927221;28;20247;-57
2022/09/23 15:00:08;;;;;;;1.30;1.30;;;;;;;;;;4936555;28;20226;-56
2022/09/23 15:02:38;;;;;;;1.35;1.35;;;;;;;;;;4928553;28;20236;-57
2022/09/23 15:05:09;;;;;;;1.50;1.50;;;;;;;;;;4939508;28;20225;-56
2022/09/23 15:07:36;;;;;;;1.40;1.40;;;;;;;;;;4939331;28;21551;-56
2022/09/23 15:10:03;;;;;;;1.33;1.33;;;;;;;;;;4944910;28;20239;-56
2022/09/23 15:12:29;;;;;;;1.23;1.23;;;;;;;;;;4931559;28;22723;-57
2022/09/23 15:14:55;;;;;;;1.40;1.40;;;;;;;;;;4950950;28;20231;-57
2022/09/23 15:17:30;;;;;;;1.50;1.50;;;;;;;;;;4948805;28;20252;-57